sensor_id;sensor_type;location;lat;lon;timestamp;P1;durP1;ratioP1;P2;durP2;ratioP2
18228;SDS011;9239;50.932;3.142;2022-07-24T00:01:57;6.07;;;5.22;;
18228;SDS011;9239;50.932;3.142;2022-07-24T00:04:24;9.38;;;5.45;;
18228;SDS011;9239;50.932;3.142;2022-07-24T00:06:51;6.45;;;5.75;;
18228;SDS011;9239;50.932;3.142;2022-07-24T00:09:18;5.72;;;5.25;;
18228;SDS011;9239;50.932;3.142;2022-07-24T00:11:45;7.13;;;5.65;;
18228;SDS011;9239;50.932;3.142;2022-07-24T00:14:13;7.45;;;6.22;;
18228;SDS011;9239;50.932;3.142;2022-07-24T00:16:40;7.07;;;6.38;;
18228;SDS011;9239;50.932;3.142;2022-07-24T00:19:08;8.40;;;6.25;;
18228;SDS011;9239;50.932;3.142;2022-07-24T00:21:35;7.90;;;6.38;;
18228;SDS011;9239;50.932;3.142;2022-07-24T00:24:02;9.30;;;6.45;;
18228;SDS011;9239;50.932;3.142;2022-07-24T00:26:29;10.60;;;7.20;;
18228;SDS011;9239;50.932;3.142;2022-07-24T00:28:56;8.48;;;7.05;;
18228;SDS011;9239;50.932;3.142;2022-07-24T00:31:23;8.82;;;6.65;;
18228;SDS011;9239;50.932;3.142;2022-07-24T00:33:50;7.38;;;6.25;;
18228;SDS011;9239;50.932;3.142;2022-07-24T00:36:18;7.50;;;6.50;;
18228;SDS011;9239;50.932;3.142;2022-07-24T00:38:45;7.30;;;6.35;;
18228;SDS011;9239;50.932;3.142;2022-07-24T00:41:12;8.82;;;6.53;;
18228;SDS011;9239;50.932;3.142;2022-07-24T00:46:24;8.15;;;7.10;;
18228;SDS011;9239;50.932;3.142;2022-07-24T00:48:51;8.82;;;7.93;;
18228;SDS011;9239;50.932;3.142;2022-07-24T00:51:20;9.65;;;8.57;;
18228;SDS011;9239;50.932;3.142;2022-07-24T00:53:48;10.75;;;8.82;;
18228;SDS011;9239;50.932;3.142;2022-07-24T00:56:15;11.00;;;8.65;;
18228;SDS011;9239;50.932;3.142;2022-07-24T00:58:42;9.38;;;8.07;;
18228;SDS011;9239;50.932;3.142;2022-07-24T01:01:11;11.35;;;9.25;;
18228;SDS011;9239;50.932;3.142;2022-07-24T01:03:37;11.32;;;9.05;;
18228;SDS011;9239;50.932;3.142;2022-07-24T01:06:05;10.10;;;9.00;;
18228;SDS011;9239;50.932;3.142;2022-07-24T01:08:34;12.02;;;10.00;;
18228;SDS011;9239;50.932;3.142;2022-07-24T01:11:02;10.90;;;9.32;;
18228;SDS011;9239;50.932;3.142;2022-07-24T01:13:30;9.70;;;8.73;;
18228;SDS011;9239;50.932;3.142;2022-07-24T01:15:57;10.63;;;9.35;;
18228;SDS011;9239;50.932;3.142;2022-07-24T01:18:25;11.45;;;10.35;;
18228;SDS011;9239;50.932;3.142;2022-07-24T01:20:53;11.85;;;9.13;;
18228;SDS011;9239;50.932;3.142;2022-07-24T01:23:21;11.75;;;10.57;;
18228;SDS011;9239;50.932;3.142;2022-07-24T01:25:48;11.63;;;10.50;;
18228;SDS011;9239;50.932;3.142;2022-07-24T01:28:16;11.10;;;10.10;;
18228;SDS011;9239;50.932;3.142;2022-07-24T01:30:44;11.20;;;10.10;;
18228;SDS011;9239;50.932;3.142;2022-07-24T01:33:11;12.73;;;10.48;;
18228;SDS011;9239;50.932;3.142;2022-07-24T01:35:39;10.85;;;9.85;;
18228;SDS011;9239;50.932;3.142;2022-07-24T01:38:07;12.00;;;10.73;;
18228;SDS011;9239;50.932;3.142;2022-07-24T01:40:34;12.40;;;10.93;;
18228;SDS011;9239;50.932;3.142;2022-07-24T01:43:01;12.23;;;10.82;;
18228;SDS011;9239;50.932;3.142;2022-07-24T01:45:28;12.60;;;10.40;;
18228;SDS011;9239;50.932;3.142;2022-07-24T01:47:55;11.20;;;10.10;;
18228;SDS011;9239;50.932;3.142;2022-07-24T01:50:22;11.80;;;10.63;;
18228;SDS011;9239;50.932;3.142;2022-07-24T01:52:49;12.10;;;11.00;;
18228;SDS011;9239;50.932;3.142;2022-07-24T01:55:19;12.43;;;10.68;;
18228;SDS011;9239;50.932;3.142;2022-07-24T01:57:46;12.27;;;10.73;;
18228;SDS011;9239;50.932;3.142;2022-07-24T02:00:14;13.82;;;11.18;;
18228;SDS011;9239;50.932;3.142;2022-07-24T02:02:42;14.98;;;11.07;;
18228;SDS011;9239;50.932;3.142;2022-07-24T02:05:09;11.38;;;10.27;;
18228;SDS011;9239;50.932;3.142;2022-07-24T02:07:38;13.73;;;10.20;;
18228;SDS011;9239;50.932;3.142;2022-07-24T02:10:05;13.73;;;10.13;;
18228;SDS011;9239;50.932;3.142;2022-07-24T02:12:33;11.77;;;10.63;;
18228;SDS011;9239;50.932;3.142;2022-07-24T02:15:00;12.52;;;11.30;;
18228;SDS011;9239;50.932;3.142;2022-07-24T02:17:27;12.02;;;10.50;;
18228;SDS011;9239;50.932;3.142;2022-07-24T02:19:54;13.43;;;10.88;;
18228;SDS011;9239;50.932;3.142;2022-07-24T02:22:21;11.73;;;10.63;;
18228;SDS011;9239;50.932;3.142;2022-07-24T02:24:48;11.13;;;10.02;;
18228;SDS011;9239;50.932;3.142;2022-07-24T02:27:15;10.98;;;9.88;;
18228;SDS011;9239;50.932;3.142;2022-07-24T02:29:46;12.20;;;10.90;;
18228;SDS011;9239;50.932;3.142;2022-07-24T02:32:13;11.60;;;10.48;;
18228;SDS011;9239;50.932;3.142;2022-07-24T02:34:39;12.13;;;10.93;;
18228;SDS011;9239;50.932;3.142;2022-07-24T02:37:06;11.13;;;9.50;;
18228;SDS011;9239;50.932;3.142;2022-07-24T02:39:33;12.32;;;10.70;;
18228;SDS011;9239;50.932;3.142;2022-07-24T02:42:00;11.15;;;10.05;;
18228;SDS011;9239;50.932;3.142;2022-07-24T02:44:27;11.30;;;9.75;;
18228;SDS011;9239;50.932;3.142;2022-07-24T02:46:55;11.95;;;10.00;;
18228;SDS011;9239;50.932;3.142;2022-07-24T02:49:22;11.85;;;10.25;;
18228;SDS011;9239;50.932;3.142;2022-07-24T02:51:49;11.07;;;9.95;;
18228;SDS011;9239;50.932;3.142;2022-07-24T02:54:16;12.88;;;10.25;;
18228;SDS011;9239;50.932;3.142;2022-07-24T02:56:43;10.85;;;9.73;;
18228;SDS011;9239;50.932;3.142;2022-07-24T02:59:10;9.65;;;8.73;;
18228;SDS011;9239;50.932;3.142;2022-07-24T03:01:36;14.43;;;10.20;;
18228;SDS011;9239;50.932;3.142;2022-07-24T03:04:05;11.60;;;10.07;;
18228;SDS011;9239;50.932;3.142;2022-07-24T03:06:32;11.90;;;9.68;;
18228;SDS011;9239;50.932;3.142;2022-07-24T03:09:00;10.93;;;9.93;;
18228;SDS011;9239;50.932;3.142;2022-07-24T03:11:27;11.32;;;9.40;;
18228;SDS011;9239;50.932;3.142;2022-07-24T03:13:53;11.77;;;9.10;;
18228;SDS011;9239;50.932;3.142;2022-07-24T03:16:20;10.48;;;8.82;;
18228;SDS011;9239;50.932;3.142;2022-07-24T03:18:48;10.45;;;9.35;;
18228;SDS011;9239;50.932;3.142;2022-07-24T03:21:16;12.07;;;10.13;;
18228;SDS011;9239;50.932;3.142;2022-07-24T03:23:44;11.48;;;9.63;;
18228;SDS011;9239;50.932;3.142;2022-07-24T03:26:11;10.77;;;9.77;;
18228;SDS011;9239;50.932;3.142;2022-07-24T03:28:38;11.68;;;10.48;;
18228;SDS011;9239;50.932;3.142;2022-07-24T03:31:05;10.00;;;9.00;;
18228;SDS011;9239;50.932;3.142;2022-07-24T03:33:32;11.43;;;10.18;;
18228;SDS011;9239;50.932;3.142;2022-07-24T03:35:59;10.85;;;9.48;;
18228;SDS011;9239;50.932;3.142;2022-07-24T03:38:27;11.35;;;9.30;;
18228;SDS011;9239;50.932;3.142;2022-07-24T03:40:54;10.82;;;9.82;;
18228;SDS011;9239;50.932;3.142;2022-07-24T03:43:21;11.38;;;10.27;;
18228;SDS011;9239;50.932;3.142;2022-07-24T03:45:48;10.88;;;9.50;;
18228;SDS011;9239;50.932;3.142;2022-07-24T03:48:15;10.18;;;9.27;;
18228;SDS011;9239;50.932;3.142;2022-07-24T03:50:42;11.73;;;9.93;;
18228;SDS011;9239;50.932;3.142;2022-07-24T03:53:09;14.95;;;9.13;;
18228;SDS011;9239;50.932;3.142;2022-07-24T03:55:37;11.68;;;9.90;;
18228;SDS011;9239;50.932;3.142;2022-07-24T03:58:04;12.55;;;9.35;;
18228;SDS011;9239;50.932;3.142;2022-07-24T04:00:31;10.75;;;9.75;;
18228;SDS011;9239;50.932;3.142;2022-07-24T04:02:58;11.90;;;9.70;;
18228;SDS011;9239;50.932;3.142;2022-07-24T04:05:25;12.50;;;9.73;;
18228;SDS011;9239;50.932;3.142;2022-07-24T04:07:52;11.13;;;10.02;;
18228;SDS011;9239;50.932;3.142;2022-07-24T04:10:18;12.65;;;11.35;;
18228;SDS011;9239;50.932;3.142;2022-07-24T04:12:47;11.90;;;10.43;;
18228;SDS011;9239;50.932;3.142;2022-07-24T04:15:14;12.32;;;10.20;;
18228;SDS011;9239;50.932;3.142;2022-07-24T04:17:41;14.30;;;11.18;;
18228;SDS011;9239;50.932;3.142;2022-07-24T04:20:09;11.50;;;10.30;;
18228;SDS011;9239;50.932;3.142;2022-07-24T04:22:37;14.82;;;11.27;;
18228;SDS011;9239;50.932;3.142;2022-07-24T04:25:04;11.45;;;10.18;;
18228;SDS011;9239;50.932;3.142;2022-07-24T04:27:32;12.55;;;11.25;;
18228;SDS011;9239;50.932;3.142;2022-07-24T04:30:00;12.60;;;10.57;;
18228;SDS011;9239;50.932;3.142;2022-07-24T04:32:27;12.23;;;10.02;;
18228;SDS011;9239;50.932;3.142;2022-07-24T04:34:55;11.63;;;10.43;;
18228;SDS011;9239;50.932;3.142;2022-07-24T04:37:22;13.43;;;10.27;;
18228;SDS011;9239;50.932;3.142;2022-07-24T04:39:49;12.38;;;10.90;;
18228;SDS011;9239;50.932;3.142;2022-07-24T04:42:16;12.73;;;10.25;;
18228;SDS011;9239;50.932;3.142;2022-07-24T04:44:43;13.40;;;10.50;;
18228;SDS011;9239;50.932;3.142;2022-07-24T04:47:11;11.43;;;10.25;;
18228;SDS011;9239;50.932;3.142;2022-07-24T04:49:38;10.75;;;9.75;;
18228;SDS011;9239;50.932;3.142;2022-07-24T04:52:05;12.60;;;9.73;;
18228;SDS011;9239;50.932;3.142;2022-07-24T04:54:32;12.60;;;10.15;;
18228;SDS011;9239;50.932;3.142;2022-07-24T04:56:59;11.32;;;10.00;;
18228;SDS011;9239;50.932;3.142;2022-07-24T04:59:26;10.50;;;9.55;;
18228;SDS011;9239;50.932;3.142;2022-07-24T05:01:52;13.93;;;10.23;;
18228;SDS011;9239;50.932;3.142;2022-07-24T05:04:21;9.80;;;8.95;;
18228;SDS011;9239;50.932;3.142;2022-07-24T05:06:47;9.88;;;8.88;;
18228;SDS011;9239;50.932;3.142;2022-07-24T05:09:14;10.80;;;9.30;;
18228;SDS011;9239;50.932;3.142;2022-07-24T05:11:42;10.85;;;9.70;;
18228;SDS011;9239;50.932;3.142;2022-07-24T05:14:08;10.18;;;9.18;;
18228;SDS011;9239;50.932;3.142;2022-07-24T05:16:35;11.48;;;9.60;;
18228;SDS011;9239;50.932;3.142;2022-07-24T05:19:02;9.82;;;8.93;;
18228;SDS011;9239;50.932;3.142;2022-07-24T05:21:31;10.23;;;9.23;;
18228;SDS011;9239;50.932;3.142;2022-07-24T05:23:58;10.27;;;9.27;;
18228;SDS011;9239;50.932;3.142;2022-07-24T05:26:26;9.13;;;8.23;;
18228;SDS011;9239;50.932;3.142;2022-07-24T05:28:53;10.45;;;9.20;;
18228;SDS011;9239;50.932;3.142;2022-07-24T05:31:20;9.73;;;8.52;;
18228;SDS011;9239;50.932;3.142;2022-07-24T05:33:47;9.02;;;8.13;;
18228;SDS011;9239;50.932;3.142;2022-07-24T05:36:14;9.85;;;7.72;;
18228;SDS011;9239;50.932;3.142;2022-07-24T05:38:42;12.48;;;8.20;;
18228;SDS011;9239;50.932;3.142;2022-07-24T05:41:09;9.10;;;8.20;;
18228;SDS011;9239;50.932;3.142;2022-07-24T05:43:37;11.02;;;8.05;;
18228;SDS011;9239;50.932;3.142;2022-07-24T05:46:04;9.93;;;7.63;;
18228;SDS011;9239;50.932;3.142;2022-07-24T05:48:31;8.15;;;7.15;;
18228;SDS011;9239;50.932;3.142;2022-07-24T05:50:58;8.40;;;7.03;;
18228;SDS011;9239;50.932;3.142;2022-07-24T05:53:25;9.90;;;7.20;;
18228;SDS011;9239;50.932;3.142;2022-07-24T05:55:54;8.07;;;7.25;;
18228;SDS011;9239;50.932;3.142;2022-07-24T05:58:21;7.35;;;6.65;;
18228;SDS011;9239;50.932;3.142;2022-07-24T06:00:48;7.47;;;6.75;;
18228;SDS011;9239;50.932;3.142;2022-07-24T06:03:15;8.82;;;6.18;;
18228;SDS011;9239;50.932;3.142;2022-07-24T06:05:42;7.97;;;6.30;;
18228;SDS011;9239;50.932;3.142;2022-07-24T06:08:08;8.13;;;5.93;;
18228;SDS011;9239;50.932;3.142;2022-07-24T06:10:35;6.80;;;5.93;;
18228;SDS011;9239;50.932;3.142;2022-07-24T06:13:04;5.95;;;5.35;;
18228;SDS011;9239;50.932;3.142;2022-07-24T06:15:31;6.10;;;5.50;;
18228;SDS011;9239;50.932;3.142;2022-07-24T06:17:58;7.93;;;4.88;;
18228;SDS011;9239;50.932;3.142;2022-07-24T06:20:24;6.60;;;5.50;;
18228;SDS011;9239;50.932;3.142;2022-07-24T06:22:51;6.97;;;5.30;;
18228;SDS011;9239;50.932;3.142;2022-07-24T06:25:18;6.45;;;5.05;;
18228;SDS011;9239;50.932;3.142;2022-07-24T06:27:46;5.35;;;4.20;;
18228;SDS011;9239;50.932;3.142;2022-07-24T06:30:15;5.80;;;4.50;;
18228;SDS011;9239;50.932;3.142;2022-07-24T06:32:43;4.68;;;4.20;;
18228;SDS011;9239;50.932;3.142;2022-07-24T06:35:11;4.53;;;3.80;;
18228;SDS011;9239;50.932;3.142;2022-07-24T06:37:38;4.55;;;4.03;;
18228;SDS011;9239;50.932;3.142;2022-07-24T06:40:05;3.95;;;3.63;;
18228;SDS011;9239;50.932;3.142;2022-07-24T06:42:33;5.07;;;3.80;;
18228;SDS011;9239;50.932;3.142;2022-07-24T06:45:00;6.35;;;3.85;;
18228;SDS011;9239;50.932;3.142;2022-07-24T06:47:28;4.25;;;3.65;;
18228;SDS011;9239;50.932;3.142;2022-07-24T06:49:56;4.20;;;3.88;;
18228;SDS011;9239;50.932;3.142;2022-07-24T06:52:23;4.72;;;3.92;;
18228;SDS011;9239;50.932;3.142;2022-07-24T06:54:50;4.43;;;4.03;;
18228;SDS011;9239;50.932;3.142;2022-07-24T06:57:17;4.18;;;3.78;;
18228;SDS011;9239;50.932;3.142;2022-07-24T06:59:44;4.78;;;3.17;;
18228;SDS011;9239;50.932;3.142;2022-07-24T07:02:11;4.05;;;3.42;;
18228;SDS011;9239;50.932;3.142;2022-07-24T07:04:39;4.07;;;3.58;;
18228;SDS011;9239;50.932;3.142;2022-07-24T07:07:06;3.83;;;3.28;;
18228;SDS011;9239;50.932;3.142;2022-07-24T07:09:33;3.80;;;3.30;;
18228;SDS011;9239;50.932;3.142;2022-07-24T07:12:01;3.05;;;2.58;;
18228;SDS011;9239;50.932;3.142;2022-07-24T07:14:28;3.65;;;2.70;;
18228;SDS011;9239;50.932;3.142;2022-07-24T07:16:55;3.30;;;2.78;;
18228;SDS011;9239;50.932;3.142;2022-07-24T07:19:22;4.30;;;3.03;;
18228;SDS011;9239;50.932;3.142;2022-07-24T07:21:50;4.95;;;2.90;;
18228;SDS011;9239;50.932;3.142;2022-07-24T07:24:17;4.72;;;3.25;;
18228;SDS011;9239;50.932;3.142;2022-07-24T07:26:44;3.78;;;3.10;;
18228;SDS011;9239;50.932;3.142;2022-07-24T07:29:11;3.72;;;2.90;;
18228;SDS011;9239;50.932;3.142;2022-07-24T07:31:38;4.43;;;3.30;;
18228;SDS011;9239;50.932;3.142;2022-07-24T07:34:05;2.97;;;2.67;;
18228;SDS011;9239;50.932;3.142;2022-07-24T07:36:31;3.72;;;2.70;;
18228;SDS011;9239;50.932;3.142;2022-07-24T07:39:01;2.88;;;2.67;;
18228;SDS011;9239;50.932;3.142;2022-07-24T07:41:28;5.40;;;3.28;;
18228;SDS011;9239;50.932;3.142;2022-07-24T07:43:54;5.38;;;3.15;;
18228;SDS011;9239;50.932;3.142;2022-07-24T07:46:23;4.32;;;2.78;;
18228;SDS011;9239;50.932;3.142;2022-07-24T07:48:50;2.85;;;2.30;;
18228;SDS011;9239;50.932;3.142;2022-07-24T07:51:17;2.83;;;2.63;;
18228;SDS011;9239;50.932;3.142;2022-07-24T07:53:44;2.67;;;2.47;;
18228;SDS011;9239;50.932;3.142;2022-07-24T07:56:13;2.50;;;2.30;;
18228;SDS011;9239;50.932;3.142;2022-07-24T07:58:40;2.85;;;2.55;;
18228;SDS011;9239;50.932;3.142;2022-07-24T08:01:07;3.33;;;2.53;;
18228;SDS011;9239;50.932;3.142;2022-07-24T08:03:34;3.75;;;2.88;;
18228;SDS011;9239;50.932;3.142;2022-07-24T08:06:01;3.42;;;2.40;;
18228;SDS011;9239;50.932;3.142;2022-07-24T08:08:29;2.67;;;2.47;;
18228;SDS011;9239;50.932;3.142;2022-07-24T08:10:56;3.45;;;2.42;;
18228;SDS011;9239;50.932;3.142;2022-07-24T08:13:24;3.92;;;2.80;;
18228;SDS011;9239;50.932;3.142;2022-07-24T08:15:52;3.00;;;2.70;;
18228;SDS011;9239;50.932;3.142;2022-07-24T08:18:19;2.83;;;2.60;;
18228;SDS011;9239;50.932;3.142;2022-07-24T08:20:46;3.78;;;2.20;;
18228;SDS011;9239;50.932;3.142;2022-07-24T08:23:13;2.92;;;2.63;;
18228;SDS011;9239;50.932;3.142;2022-07-24T08:25:40;4.43;;;2.63;;
18228;SDS011;9239;50.932;3.142;2022-07-24T08:28:07;3.20;;;2.70;;
18228;SDS011;9239;50.932;3.142;2022-07-24T08:30:35;5.72;;;3.30;;
18228;SDS011;9239;50.932;3.142;2022-07-24T08:33:02;3.10;;;2.20;;
18228;SDS011;9239;50.932;3.142;2022-07-24T08:35:29;2.65;;;2.42;;
18228;SDS011;9239;50.932;3.142;2022-07-24T08:37:56;2.60;;;2.40;;
18228;SDS011;9239;50.932;3.142;2022-07-24T08:40:23;2.83;;;2.60;;
18228;SDS011;9239;50.932;3.142;2022-07-24T08:42:50;3.03;;;2.50;;
18228;SDS011;9239;50.932;3.142;2022-07-24T08:45:17;4.63;;;2.35;;
18228;SDS011;9239;50.932;3.142;2022-07-24T08:47:46;3.13;;;2.28;;
18228;SDS011;9239;50.932;3.142;2022-07-24T08:50:15;3.80;;;2.45;;
18228;SDS011;9239;50.932;3.142;2022-07-24T08:52:42;2.22;;;2.13;;
18228;SDS011;9239;50.932;3.142;2022-07-24T08:55:10;4.00;;;2.47;;
18228;SDS011;9239;50.932;3.142;2022-07-24T08:57:38;3.28;;;2.53;;
18228;SDS011;9239;50.932;3.142;2022-07-24T09:00:05;2.60;;;2.40;;
18228;SDS011;9239;50.932;3.142;2022-07-24T09:02:33;4.68;;;2.35;;
18228;SDS011;9239;50.932;3.142;2022-07-24T09:05:04;3.47;;;2.85;;
18228;SDS011;9239;50.932;3.142;2022-07-24T09:07:31;3.70;;;2.83;;
18228;SDS011;9239;50.932;3.142;2022-07-24T09:09:59;4.50;;;2.63;;
18228;SDS011;9239;50.932;3.142;2022-07-24T09:12:30;3.90;;;2.58;;
18228;SDS011;9239;50.932;3.142;2022-07-24T09:14:58;3.17;;;2.97;;
18228;SDS011;9239;50.932;3.142;2022-07-24T09:17:26;3.92;;;3.47;;
18228;SDS011;9239;50.932;3.142;2022-07-24T09:19:54;2.50;;;2.25;;
18228;SDS011;9239;50.932;3.142;2022-07-24T09:22:31;3.50;;;2.97;;
18228;SDS011;9239;50.932;3.142;2022-07-24T09:25:08;3.35;;;3.05;;
18228;SDS011;9239;50.932;3.142;2022-07-24T09:27:38;4.80;;;3.38;;
18228;SDS011;9239;50.932;3.142;2022-07-24T09:30:07;4.25;;;3.40;;
18228;SDS011;9239;50.932;3.142;2022-07-24T09:32:35;3.65;;;3.35;;
18228;SDS011;9239;50.932;3.142;2022-07-24T09:35:02;5.38;;;4.18;;
18228;SDS011;9239;50.932;3.142;2022-07-24T09:37:31;4.03;;;3.22;;
18228;SDS011;9239;50.932;3.142;2022-07-24T09:40:05;4.18;;;3.30;;
18228;SDS011;9239;50.932;3.142;2022-07-24T09:42:34;4.22;;;2.97;;
18228;SDS011;9239;50.932;3.142;2022-07-24T09:45:06;5.63;;;3.47;;
18228;SDS011;9239;50.932;3.142;2022-07-24T09:47:36;5.22;;;3.65;;
18228;SDS011;9239;50.932;3.142;2022-07-24T09:50:14;3.55;;;3.05;;
18228;SDS011;9239;50.932;3.142;2022-07-24T09:52:44;3.60;;;3.30;;
18228;SDS011;9239;50.932;3.142;2022-07-24T09:55:19;3.78;;;3.47;;
18228;SDS011;9239;50.932;3.142;2022-07-24T09:57:47;4.18;;;3.67;;
18228;SDS011;9239;50.932;3.142;2022-07-24T10:00:15;3.75;;;3.03;;
18228;SDS011;9239;50.932;3.142;2022-07-24T10:02:43;3.65;;;3.13;;
18228;SDS011;9239;50.932;3.142;2022-07-24T10:05:11;4.43;;;4.00;;
18228;SDS011;9239;50.932;3.142;2022-07-24T10:07:40;4.13;;;3.60;;
18228;SDS011;9239;50.932;3.142;2022-07-24T10:10:10;5.53;;;3.35;;
18228;SDS011;9239;50.932;3.142;2022-07-24T10:12:38;4.43;;;3.28;;
18228;SDS011;9239;50.932;3.142;2022-07-24T10:15:06;3.55;;;3.25;;
18228;SDS011;9239;50.932;3.142;2022-07-24T10:17:41;6.30;;;3.72;;
18228;SDS011;9239;50.932;3.142;2022-07-24T10:20:29;3.60;;;3.25;;
18228;SDS011;9239;50.932;3.142;2022-07-24T10:23:04;3.65;;;3.40;;
18228;SDS011;9239;50.932;3.142;2022-07-24T10:25:38;3.60;;;3.30;;
18228;SDS011;9239;50.932;3.142;2022-07-24T10:28:20;6.13;;;3.42;;
18228;SDS011;9239;50.932;3.142;2022-07-24T10:30:56;5.63;;;3.47;;
18228;SDS011;9239;50.932;3.142;2022-07-24T10:33:23;3.65;;;3.25;;
18228;SDS011;9239;50.932;3.142;2022-07-24T10:35:52;4.32;;;3.42;;
18228;SDS011;9239;50.932;3.142;2022-07-24T10:38:24;5.80;;;3.88;;
18228;SDS011;9239;50.932;3.142;2022-07-24T10:41:02;4.55;;;4.18;;
18228;SDS011;9239;50.932;3.142;2022-07-24T10:43:35;6.70;;;3.65;;
18228;SDS011;9239;50.932;3.142;2022-07-24T10:46:11;4.95;;;3.40;;
18228;SDS011;9239;50.932;3.142;2022-07-24T10:48:39;4.15;;;3.10;;
18228;SDS011;9239;50.932;3.142;2022-07-24T10:51:10;3.65;;;3.30;;
18228;SDS011;9239;50.932;3.142;2022-07-24T10:56:36;4.45;;;4.05;;
18228;SDS011;9239;50.932;3.142;2022-07-24T10:59:07;4.55;;;3.67;;
18228;SDS011;9239;50.932;3.142;2022-07-24T11:01:36;3.95;;;3.65;;
18228;SDS011;9239;50.932;3.142;2022-07-24T11:04:27;4.85;;;3.47;;
18228;SDS011;9239;50.932;3.142;2022-07-24T11:06:56;4.20;;;3.70;;
18228;SDS011;9239;50.932;3.142;2022-07-24T11:09:36;7.88;;;4.18;;
18228;SDS011;9239;50.932;3.142;2022-07-24T11:12:27;6.10;;;3.42;;
18228;SDS011;9239;50.932;3.142;2022-07-24T11:14:57;3.60;;;3.30;;
18228;SDS011;9239;50.932;3.142;2022-07-24T11:17:47;4.63;;;3.30;;
18228;SDS011;9239;50.932;3.142;2022-07-24T11:20:14;3.97;;;3.65;;
18228;SDS011;9239;50.932;3.142;2022-07-24T11:22:43;3.65;;;3.33;;
18228;SDS011;9239;50.932;3.142;2022-07-24T11:25:14;3.38;;;3.10;;
18228;SDS011;9239;50.932;3.142;2022-07-24T11:27:44;4.82;;;3.15;;
18228;SDS011;9239;50.932;3.142;2022-07-24T11:30:16;3.38;;;3.08;;
18228;SDS011;9239;50.932;3.142;2022-07-24T11:32:44;4.05;;;3.33;;
18228;SDS011;9239;50.932;3.142;2022-07-24T11:35:11;4.65;;;3.45;;
18228;SDS011;9239;50.932;3.142;2022-07-24T11:37:39;3.83;;;3.20;;
18228;SDS011;9239;50.932;3.142;2022-07-24T11:40:07;3.83;;;3.53;;
18228;SDS011;9239;50.932;3.142;2022-07-24T11:42:39;4.72;;;3.25;;
18228;SDS011;9239;50.932;3.142;2022-07-24T11:45:08;3.95;;;3.35;;
18228;SDS011;9239;50.932;3.142;2022-07-24T11:47:35;5.75;;;3.28;;
18228;SDS011;9239;50.932;3.142;2022-07-24T11:50:03;3.90;;;3.60;;
18228;SDS011;9239;50.932;3.142;2022-07-24T11:52:32;4.32;;;3.85;;
18228;SDS011;9239;50.932;3.142;2022-07-24T11:55:01;4.57;;;3.42;;
18228;SDS011;9239;50.932;3.142;2022-07-24T11:57:31;3.75;;;3.45;;
18228;SDS011;9239;50.932;3.142;2022-07-24T11:59:59;3.65;;;3.35;;
18228;SDS011;9239;50.932;3.142;2022-07-24T12:02:29;4.18;;;3.70;;
18228;SDS011;9239;50.932;3.142;2022-07-24T12:04:55;4.85;;;3.65;;
18228;SDS011;9239;50.932;3.142;2022-07-24T12:07:24;3.80;;;3.50;;
18228;SDS011;9239;50.932;3.142;2022-07-24T12:09:52;3.38;;;3.08;;
18228;SDS011;9239;50.932;3.142;2022-07-24T12:12:22;3.72;;;3.40;;
18228;SDS011;9239;50.932;3.142;2022-07-24T12:14:52;3.63;;;3.30;;
18228;SDS011;9239;50.932;3.142;2022-07-24T12:17:25;4.50;;;3.35;;
18228;SDS011;9239;50.932;3.142;2022-07-24T12:19:55;3.63;;;3.03;;
18228;SDS011;9239;50.932;3.142;2022-07-24T12:22:24;3.35;;;3.05;;
18228;SDS011;9239;50.932;3.142;2022-07-24T12:24:52;3.42;;;3.20;;
18228;SDS011;9239;50.932;3.142;2022-07-24T12:27:33;3.13;;;2.92;;
18228;SDS011;9239;50.932;3.142;2022-07-24T12:30:02;3.70;;;3.40;;
18228;SDS011;9239;50.932;3.142;2022-07-24T12:32:51;4.97;;;3.15;;
18228;SDS011;9239;50.932;3.142;2022-07-24T12:35:20;3.42;;;3.13;;
18228;SDS011;9239;50.932;3.142;2022-07-24T12:37:47;2.90;;;2.70;;
18228;SDS011;9239;50.932;3.142;2022-07-24T12:40:21;3.45;;;3.15;;
18228;SDS011;9239;50.932;3.142;2022-07-24T12:42:55;3.35;;;3.00;;
18228;SDS011;9239;50.932;3.142;2022-07-24T12:45:26;3.28;;;3.08;;
18228;SDS011;9239;50.932;3.142;2022-07-24T12:48:06;3.92;;;3.15;;
18228;SDS011;9239;50.932;3.142;2022-07-24T12:53:42;3.97;;;3.58;;
18228;SDS011;9239;50.932;3.142;2022-07-24T12:56:10;5.07;;;3.00;;
18228;SDS011;9239;50.932;3.142;2022-07-24T12:58:53;3.50;;;3.30;;
18228;SDS011;9239;50.932;3.142;2022-07-24T13:01:22;3.47;;;3.15;;
18228;SDS011;9239;50.932;3.142;2022-07-24T13:03:51;3.30;;;3.00;;
18228;SDS011;9239;50.932;3.142;2022-07-24T13:06:29;4.32;;;3.35;;
18228;SDS011;9239;50.932;3.142;2022-07-24T13:09:03;3.38;;;3.08;;
18228;SDS011;9239;50.932;3.142;2022-07-24T13:11:31;3.58;;;3.35;;
18228;SDS011;9239;50.932;3.142;2022-07-24T13:13:58;4.28;;;3.33;;
18228;SDS011;9239;50.932;3.142;2022-07-24T13:16:28;3.90;;;3.60;;
18228;SDS011;9239;50.932;3.142;2022-07-24T13:18:56;4.53;;;3.30;;
18228;SDS011;9239;50.932;3.142;2022-07-24T13:21:24;3.50;;;3.05;;
18228;SDS011;9239;50.932;3.142;2022-07-24T13:23:51;3.75;;;3.45;;
18228;SDS011;9239;50.932;3.142;2022-07-24T13:26:19;3.15;;;2.95;;
18228;SDS011;9239;50.932;3.142;2022-07-24T13:28:46;3.50;;;3.30;;
18228;SDS011;9239;50.932;3.142;2022-07-24T13:31:14;4.43;;;3.47;;
18228;SDS011;9239;50.932;3.142;2022-07-24T13:33:41;3.85;;;3.55;;
18228;SDS011;9239;50.932;3.142;2022-07-24T13:36:08;4.25;;;3.65;;
18228;SDS011;9239;50.932;3.142;2022-07-24T13:38:35;4.35;;;3.65;;
18228;SDS011;9239;50.932;3.142;2022-07-24T13:41:03;4.50;;;4.10;;
18228;SDS011;9239;50.932;3.142;2022-07-24T13:43:31;4.45;;;4.05;;
18228;SDS011;9239;50.932;3.142;2022-07-24T13:45:58;4.03;;;3.63;;
18228;SDS011;9239;50.932;3.142;2022-07-24T13:48:25;5.78;;;4.13;;
18228;SDS011;9239;50.932;3.142;2022-07-24T13:50:52;5.20;;;3.80;;
18228;SDS011;9239;50.932;3.142;2022-07-24T13:53:19;4.30;;;3.95;;
18228;SDS011;9239;50.932;3.142;2022-07-24T13:55:46;5.25;;;4.75;;
18228;SDS011;9239;50.932;3.142;2022-07-24T13:58:13;4.47;;;3.97;;
18228;SDS011;9239;50.932;3.142;2022-07-24T14:00:41;4.50;;;4.10;;
18228;SDS011;9239;50.932;3.142;2022-07-24T14:03:08;5.57;;;4.75;;
18228;SDS011;9239;50.932;3.142;2022-07-24T14:05:35;4.35;;;4.05;;
18228;SDS011;9239;50.932;3.142;2022-07-24T14:08:02;4.65;;;4.20;;
18228;SDS011;9239;50.932;3.142;2022-07-24T14:10:29;4.22;;;3.88;;
18228;SDS011;9239;50.932;3.142;2022-07-24T14:12:56;4.10;;;3.80;;
18228;SDS011;9239;50.932;3.142;2022-07-24T14:15:23;4.45;;;4.15;;
18228;SDS011;9239;50.932;3.142;2022-07-24T14:17:51;4.38;;;4.07;;
18228;SDS011;9239;50.932;3.142;2022-07-24T14:20:18;5.38;;;4.95;;
18228;SDS011;9239;50.932;3.142;2022-07-24T14:22:45;4.95;;;4.45;;
18228;SDS011;9239;50.932;3.142;2022-07-24T14:25:12;5.13;;;4.50;;
18228;SDS011;9239;50.932;3.142;2022-07-24T14:27:40;4.88;;;4.50;;
18228;SDS011;9239;50.932;3.142;2022-07-24T14:30:08;5.28;;;4.18;;
18228;SDS011;9239;50.932;3.142;2022-07-24T14:32:35;5.10;;;3.92;;
18228;SDS011;9239;50.932;3.142;2022-07-24T14:35:04;5.47;;;4.50;;
18228;SDS011;9239;50.932;3.142;2022-07-24T14:37:32;4.80;;;4.40;;
18228;SDS011;9239;50.932;3.142;2022-07-24T14:40:00;4.45;;;4.05;;
18228;SDS011;9239;50.932;3.142;2022-07-24T14:42:28;4.00;;;3.70;;
18228;SDS011;9239;50.932;3.142;2022-07-24T14:44:54;4.50;;;4.20;;
18228;SDS011;9239;50.932;3.142;2022-07-24T14:47:21;5.78;;;3.75;;
18228;SDS011;9239;50.932;3.142;2022-07-24T14:49:50;7.18;;;3.55;;
18228;SDS011;9239;50.932;3.142;2022-07-24T14:52:20;4.45;;;3.97;;
18228;SDS011;9239;50.932;3.142;2022-07-24T14:54:47;4.30;;;4.00;;
18228;SDS011;9239;50.932;3.142;2022-07-24T14:57:14;4.07;;;3.67;;
18228;SDS011;9239;50.932;3.142;2022-07-24T14:59:41;5.03;;;4.07;;
18228;SDS011;9239;50.932;3.142;2022-07-24T15:02:08;4.97;;;4.10;;
18228;SDS011;9239;50.932;3.142;2022-07-24T15:04:36;4.30;;;3.83;;
18228;SDS011;9239;50.932;3.142;2022-07-24T15:07:03;4.40;;;3.65;;
18228;SDS011;9239;50.932;3.142;2022-07-24T15:09:31;6.32;;;3.70;;
18228;SDS011;9239;50.932;3.142;2022-07-24T15:11:58;4.15;;;3.75;;